sensor_id;sensor_type;location;lat;lon;timestamp;pressure;altitude;pressure_sealevel;temperature;humidity
7930;BME280;4010;42.698;23.124;2024-03-22T00:01:55;118349.16;;;-140.64;68.87
7930;BME280;4010;42.698;23.124;2024-03-22T00:04:22;118349.16;;;-140.64;68.59
7930;BME280;4010;42.698;23.124;2024-03-22T00:06:49;118349.16;;;-140.64;68.87
7930;BME280;4010;42.698;23.124;2024-03-22T00:09:16;118349.16;;;-140.64;69.39
7930;BME280;4010;42.698;23.124;2024-03-22T00:11:44;118349.16;;;-140.64;69.90
7930;BME280;4010;42.698;23.124;2024-03-22T00:14:10;118349.16;;;-140.64;70.28
7930;BME280;4010;42.698;23.124;2024-03-22T00:16:38;118349.16;;;-140.64;70.43
7930;BME280;4010;42.698;23.124;2024-03-22T00:19:04;118349.16;;;-140.64;72.04
7930;BME280;4010;42.698;23.124;2024-03-22T00:21:31;118349.16;;;-140.64;74.12
7930;BME280;4010;42.698;23.124;2024-03-22T00:23:57;118349.16;;;-140.64;74.93
7930;BME280;4010;42.698;23.124;2024-03-22T00:26:24;118349.16;;;-140.64;75.93
7930;BME280;4010;42.698;23.124;2024-03-22T00:28:51;118349.16;;;-140.64;75.86
7930;BME280;4010;42.698;23.124;2024-03-22T00:31:17;118349.16;;;-140.64;76.12
7930;BME280;4010;42.698;23.124;2024-03-22T00:33:44;118349.16;;;-140.64;76.54
7930;BME280;4010;42.698;23.124;2024-03-22T00:36:11;118349.16;;;-140.64;76.68
7930;BME280;4010;42.698;23.124;2024-03-22T00:38:37;118349.16;;;-140.64;75.80
7930;BME280;4010;42.698;23.124;2024-03-22T00:41:04;118349.16;;;-140.64;75.76
7930;BME280;4010;42.698;23.124;2024-03-22T00:43:29;118349.16;;;-140.64;77.46
7930;BME280;4010;42.698;23.124;2024-03-22T00:45:56;118349.16;;;-140.64;77.53
7930;BME280;4010;42.698;23.124;2024-03-22T00:48:22;118349.16;;;-140.64;77.37
7930;BME280;4010;42.698;23.124;2024-03-22T00:50:50;118349.16;;;-140.64;77.56
7930;BME280;4010;42.698;23.124;2024-03-22T00:53:16;118349.16;;;-140.64;78.50
7930;BME280;4010;42.698;23.124;2024-03-22T00:55:43;118349.16;;;-140.64;78.08
7930;BME280;4010;42.698;23.124;2024-03-22T00:58:09;118349.16;;;-140.64;77.59
7930;BME280;4010;42.698;23.124;2024-03-22T01:00:36;118349.16;;;-140.64;77.64
7930;BME280;4010;42.698;23.124;2024-03-22T01:03:03;118349.16;;;-140.64;78.32
7930;BME280;4010;42.698;23.124;2024-03-22T01:05:31;118349.16;;;-140.64;79.17
7930;BME280;4010;42.698;23.124;2024-03-22T01:07:58;118349.16;;;-140.64;79.07
7930;BME280;4010;42.698;23.124;2024-03-22T01:10:24;118349.16;;;-140.64;78.74
7930;BME280;4010;42.698;23.124;2024-03-22T01:12:50;118349.16;;;-140.64;78.13
7930;BME280;4010;42.698;23.124;2024-03-22T01:15:17;118349.16;;;-140.64;77.85
7930;BME280;4010;42.698;23.124;2024-03-22T01:17:42;118349.16;;;-140.64;77.76
7930;BME280;4010;42.698;23.124;2024-03-22T01:20:10;118349.16;;;-140.64;78.40
7930;BME280;4010;42.698;23.124;2024-03-22T01:22:36;118349.16;;;-140.64;78.17
7930;BME280;4010;42.698;23.124;2024-03-22T01:25:05;118349.16;;;-140.64;78.46
7930;BME280;4010;42.698;23.124;2024-03-22T01:27:30;118349.16;;;-140.64;79.34
7930;BME280;4010;42.698;23.124;2024-03-22T01:29:57;118349.16;;;-140.64;79.35
7930;BME280;4010;42.698;23.124;2024-03-22T01:32:22;118349.16;;;-140.64;79.65
7930;BME280;4010;42.698;23.124;2024-03-22T01:34:49;118349.16;;;-140.64;79.04
7930;BME280;4010;42.698;23.124;2024-03-22T01:37:15;118349.16;;;-140.64;79.24
7930;BME280;4010;42.698;23.124;2024-03-22T01:39:41;118349.16;;;-140.64;79.42
7930;BME280;4010;42.698;23.124;2024-03-22T01:42:08;118349.16;;;-140.64;80.11
7930;BME280;4010;42.698;23.124;2024-03-22T01:44:35;118349.16;;;-140.64;81.17
7930;BME280;4010;42.698;23.124;2024-03-22T01:47:02;118349.16;;;-140.64;81.53
7930;BME280;4010;42.698;23.124;2024-03-22T01:49:29;118349.16;;;-140.64;82.24
7930;BME280;4010;42.698;23.124;2024-03-22T01:51:55;118349.16;;;-140.64;82.61
7930;BME280;4010;42.698;23.124;2024-03-22T01:54:22;118349.16;;;-140.64;81.96
7930;BME280;4010;42.698;23.124;2024-03-22T01:56:48;118349.16;;;-140.64;82.02
7930;BME280;4010;42.698;23.124;2024-03-22T01:59:16;118349.16;;;-140.64;82.03
7930;BME280;4010;42.698;23.124;2024-03-22T02:01:43;118349.16;;;-140.64;82.24
7930;BME280;4010;42.698;23.124;2024-03-22T02:04:09;118349.16;;;-140.64;81.94
7930;BME280;4010;42.698;23.124;2024-03-22T02:06:35;118349.16;;;-140.64;81.64
7930;BME280;4010;42.698;23.124;2024-03-22T02:09:02;118349.16;;;-140.64;81.39
7930;BME280;4010;42.698;23.124;2024-03-22T02:11:30;118349.16;;;-140.64;81.00
7930;BME280;4010;42.698;23.124;2024-03-22T02:13:57;118349.16;;;-140.64;80.89
7930;BME280;4010;42.698;23.124;2024-03-22T02:16:24;118349.16;;;-140.64;80.46
7930;BME280;4010;42.698;23.124;2024-03-22T02:18:50;118349.16;;;-140.64;80.52
7930;BME280;4010;42.698;23.124;2024-03-22T02:21:16;118349.16;;;-140.64;80.53
7930;BME280;4010;42.698;23.124;2024-03-22T02:23:44;118349.16;;;-140.64;80.45
7930;BME280;4010;42.698;23.124;2024-03-22T02:26:10;118349.16;;;-140.64;80.06
7930;BME280;4010;42.698;23.124;2024-03-22T02:28:37;118349.16;;;-140.64;79.58
7930;BME280;4010;42.698;23.124;2024-03-22T02:31:03;118349.16;;;-140.64;79.57
7930;BME280;4010;42.698;23.124;2024-03-22T02:33:30;118349.16;;;-140.64;79.66
7930;BME280;4010;42.698;23.124;2024-03-22T02:35:56;118349.16;;;-140.64;80.00
7930;BME280;4010;42.698;23.124;2024-03-22T02:38:23;118349.16;;;-140.64;80.07
7930;BME280;4010;42.698;23.124;2024-03-22T02:40:52;118349.16;;;-140.64;79.15
7930;BME280;4010;42.698;23.124;2024-03-22T02:43:19;118349.16;;;-140.64;78.11
7930;BME280;4010;42.698;23.124;2024-03-22T02:45:46;118349.16;;;-140.64;78.15
7930;BME280;4010;42.698;23.124;2024-03-22T02:48:13;118349.16;;;-140.64;78.30
7930;BME280;4010;42.698;23.124;2024-03-22T02:50:39;118349.16;;;-140.64;78.13
7930;BME280;4010;42.698;23.124;2024-03-22T02:53:05;118349.16;;;-140.64;78.71
7930;BME280;4010;42.698;23.124;2024-03-22T02:55:36;118349.16;;;-140.64;78.69
7930;BME280;4010;42.698;23.124;2024-03-22T02:58:04;118349.16;;;-140.64;79.13
7930;BME280;4010;42.698;23.124;2024-03-22T03:00:30;118349.16;;;-140.64;79.59
7930;BME280;4010;42.698;23.124;2024-03-22T03:02:57;118349.16;;;-140.64;79.50
7930;BME280;4010;42.698;23.124;2024-03-22T03:05:22;118349.16;;;-140.64;79.42
7930;BME280;4010;42.698;23.124;2024-03-22T03:07:49;118349.16;;;-140.64;79.46
7930;BME280;4010;42.698;23.124;2024-03-22T03:10:16;118349.16;;;-140.64;80.22
7930;BME280;4010;42.698;23.124;2024-03-22T03:12:42;118349.16;;;-140.64;80.12
7930;BME280;4010;42.698;23.124;2024-03-22T03:15:09;118349.16;;;-140.64;80.29
7930;BME280;4010;42.698;23.124;2024-03-22T03:17:36;118349.16;;;-140.64;80.09
7930;BME280;4010;42.698;23.124;2024-03-22T03:20:03;118349.16;;;-140.64;80.13
7930;BME280;4010;42.698;23.124;2024-03-22T03:22:33;118349.16;;;-140.64;80.44
7930;BME280;4010;42.698;23.124;2024-03-22T03:24:59;118349.16;;;-140.64;80.76
7930;BME280;4010;42.698;23.124;2024-03-22T03:27:25;118349.16;;;-140.64;81.02
7930;BME280;4010;42.698;23.124;2024-03-22T03:29:51;118349.16;;;-140.64;80.82
7930;BME280;4010;42.698;23.124;2024-03-22T03:32:19;118349.16;;;-140.64;81.18
7930;BME280;4010;42.698;23.124;2024-03-22T03:34:45;118349.16;;;-140.64;81.32
7930;BME280;4010;42.698;23.124;2024-03-22T03:37:12;118349.16;;;-140.64;81.63
7930;BME280;4010;42.698;23.124;2024-03-22T03:39:38;118349.16;;;-140.64;81.63
7930;BME280;4010;42.698;23.124;2024-03-22T03:42:05;118349.16;;;-140.64;81.37
7930;BME280;4010;42.698;23.124;2024-03-22T03:44:31;118349.16;;;-140.64;81.41
7930;BME280;4010;42.698;23.124;2024-03-22T03:46:58;118349.16;;;-140.64;81.85
7930;BME280;4010;42.698;23.124;2024-03-22T03:49:25;118349.16;;;-140.64;82.34
7930;BME280;4010;42.698;23.124;2024-03-22T03:51:52;118349.16;;;-140.64;82.55
7930;BME280;4010;42.698;23.124;2024-03-22T03:54:18;118349.16;;;-140.64;82.82
7930;BME280;4010;42.698;23.124;2024-03-22T03:56:44;118349.16;;;-140.64;83.09
7930;BME280;4010;42.698;23.124;2024-03-22T03:59:10;118349.16;;;-140.64;82.82
7930;BME280;4010;42.698;23.124;2024-03-22T04:01:37;118349.16;;;-140.64;82.99
7930;BME280;4010;42.698;23.124;2024-03-22T04:04:03;118349.16;;;-140.64;82.47
7930;BME280;4010;42.698;23.124;2024-03-22T04:06:31;118349.16;;;-140.64;82.25
7930;BME280;4010;42.698;23.124;2024-03-22T04:08:56;118349.16;;;-140.64;82.80
7930;BME280;4010;42.698;23.124;2024-03-22T04:11:24;118349.16;;;-140.64;82.23
7930;BME280;4010;42.698;23.124;2024-03-22T04:13:49;118349.16;;;-140.64;82.14
7930;BME280;4010;42.698;23.124;2024-03-22T04:16:16;118349.16;;;-140.64;81.92
7930;BME280;4010;42.698;23.124;2024-03-22T04:18:42;118349.16;;;-140.64;81.90
7930;BME280;4010;42.698;23.124;2024-03-22T04:21:08;118349.16;;;-140.64;82.30
7930;BME280;4010;42.698;23.124;2024-03-22T04:23:35;118349.16;;;-140.64;82.48
7930;BME280;4010;42.698;23.124;2024-03-22T04:26:02;118349.16;;;-140.64;82.88
7930;BME280;4010;42.698;23.124;2024-03-22T04:28:28;118349.16;;;-140.64;83.39
7930;BME280;4010;42.698;23.124;2024-03-22T04:30:59;118349.16;;;-140.64;83.81
7930;BME280;4010;42.698;23.124;2024-03-22T04:33:25;118349.16;;;-140.64;84.24
7930;BME280;4010;42.698;23.124;2024-03-22T04:35:53;118349.16;;;-140.64;84.53
7930;BME280;4010;42.698;23.124;2024-03-22T04:38:18;118349.16;;;-140.64;84.45
7930;BME280;4010;42.698;23.124;2024-03-22T04:40:46;118349.16;;;-140.64;84.15
7930;BME280;4010;42.698;23.124;2024-03-22T04:43:14;118349.16;;;-140.64;84.39
7930;BME280;4010;42.698;23.124;2024-03-22T04:45:41;118349.16;;;-140.64;84.64
7930;BME280;4010;42.698;23.124;2024-03-22T04:48:08;118349.16;;;-140.64;84.48
7930;BME280;4010;42.698;23.124;2024-03-22T04:50:34;118349.16;;;-140.64;84.73
7930;BME280;4010;42.698;23.124;2024-03-22T04:53:00;118349.16;;;-140.64;85.22
7930;BME280;4010;42.698;23.124;2024-03-22T04:55:26;118349.16;;;-140.64;85.82
7930;BME280;4010;42.698;23.124;2024-03-22T04:57:54;118349.16;;;-140.64;86.81
7930;BME280;4010;42.698;23.124;2024-03-22T05:00:20;118349.16;;;-140.64;85.07
7930;BME280;4010;42.698;23.124;2024-03-22T05:02:47;118349.16;;;-140.64;79.38
7930;BME280;4010;42.698;23.124;2024-03-22T05:05:13;118349.16;;;-140.64;74.09
7930;BME280;4010;42.698;23.124;2024-03-22T05:07:40;118349.16;;;-140.64;66.95
7930;BME280;4010;42.698;23.124;2024-03-22T05:10:06;118349.16;;;-140.64;59.43
7930;BME280;4010;42.698;23.124;2024-03-22T05:12:34;118349.16;;;-140.64;53.71
7930;BME280;4010;42.698;23.124;2024-03-22T05:15:02;118349.16;;;-140.64;50.00
7930;BME280;4010;42.698;23.124;2024-03-22T05:17:28;118349.16;;;-140.64;47.15
7930;BME280;4010;42.698;23.124;2024-03-22T05:19:57;118349.16;;;-140.64;44.61
7930;BME280;4010;42.698;23.124;2024-03-22T05:22:22;118349.16;;;-140.64;41.78
7930;BME280;4010;42.698;23.124;2024-03-22T05:24:49;118349.16;;;-140.64;39.56
7930;BME280;4010;42.698;23.124;2024-03-22T05:27:15;118349.16;;;-140.64;38.02
7930;BME280;4010;42.698;23.124;2024-03-22T05:29:41;118349.16;;;-140.64;36.93
7930;BME280;4010;42.698;23.124;2024-03-22T05:32:09;118349.16;;;-140.64;36.20
7930;BME280;4010;42.698;23.124;2024-03-22T05:34:35;118349.16;;;-140.64;34.93
7930;BME280;4010;42.698;23.124;2024-03-22T05:37:02;118349.16;;;-140.64;35.17
7930;BME280;4010;42.698;23.124;2024-03-22T05:39:28;118349.16;;;-140.64;34.56
7930;BME280;4010;42.698;23.124;2024-03-22T05:41:54;118349.16;;;-140.64;33.73
7930;BME280;4010;42.698;23.124;2024-03-22T05:44:21;118349.16;;;-140.64;34.92
7930;BME280;4010;42.698;23.124;2024-03-22T05:46:47;118349.16;;;-140.64;34.88
7930;BME280;4010;42.698;23.124;2024-03-22T05:49:15;118349.16;;;-140.64;36.55
7930;BME280;4010;42.698;23.124;2024-03-22T05:51:41;118349.16;;;-140.64;36.24
7930;BME280;4010;42.698;23.124;2024-03-22T05:54:07;118349.16;;;-140.64;36.92
7930;BME280;4010;42.698;23.124;2024-03-22T05:56:33;118349.16;;;-140.64;37.05
7930;BME280;4010;42.698;23.124;2024-03-22T05:59:00;118349.16;;;-140.64;38.10
7930;BME280;4010;42.698;23.124;2024-03-22T06:01:26;118349.16;;;-140.64;38.88
7930;BME280;4010;42.698;23.124;2024-03-22T06:03:52;118349.16;;;-140.64;37.06
7930;BME280;4010;42.698;23.124;2024-03-22T06:06:19;118349.16;;;-140.64;36.32
7930;BME280;4010;42.698;23.124;2024-03-22T06:08:50;118349.16;;;-140.64;37.45
7930;BME280;4010;42.698;23.124;2024-03-22T06:11:18;118349.16;;;-140.64;36.83
7930;BME280;4010;42.698;23.124;2024-03-22T06:13:44;118349.16;;;-140.64;37.74
7930;BME280;4010;42.698;23.124;2024-03-22T06:16:10;118349.16;;;-140.64;39.06
7930;BME280;4010;42.698;23.124;2024-03-22T06:18:37;118349.16;;;-140.64;38.08
7930;BME280;4010;42.698;23.124;2024-03-22T06:21:03;118349.16;;;-140.64;39.50
7930;BME280;4010;42.698;23.124;2024-03-22T06:23:31;118349.16;;;-140.64;39.58
7930;BME280;4010;42.698;23.124;2024-03-22T06:25:57;118349.16;;;-140.64;40.00
7930;BME280;4010;42.698;23.124;2024-03-22T06:28:28;118349.16;;;-140.64;40.06
7930;BME280;4010;42.698;23.124;2024-03-22T06:30:54;118349.16;;;-140.64;40.82
7930;BME280;4010;42.698;23.124;2024-03-22T06:33:21;118349.16;;;-140.64;41.42
7930;BME280;4010;42.698;23.124;2024-03-22T06:35:47;118349.16;;;-140.64;41.05
7930;BME280;4010;42.698;23.124;2024-03-22T06:38:14;118349.16;;;-140.64;41.00
7930;BME280;4010;42.698;23.124;2024-03-22T06:40:41;118349.16;;;-140.64;40.24
7930;BME280;4010;42.698;23.124;2024-03-22T06:43:07;118349.16;;;-140.64;41.82
7930;BME280;4010;42.698;23.124;2024-03-22T06:45:34;118349.16;;;-140.64;40.09
7930;BME280;4010;42.698;23.124;2024-03-22T06:48:01;118349.16;;;-140.64;40.67
7930;BME280;4010;42.698;23.124;2024-03-22T06:50:37;118349.16;;;-140.64;40.62
7930;BME280;4010;42.698;23.124;2024-03-22T06:53:04;118349.16;;;-140.64;39.44
7930;BME280;4010;42.698;23.124;2024-03-22T06:55:30;118349.16;;;-140.64;39.30
7930;BME280;4010;42.698;23.124;2024-03-22T06:57:58;118349.16;;;-140.64;39.93
7930;BME280;4010;42.698;23.124;2024-03-22T07:00:24;118349.16;;;-140.64;39.71
7930;BME280;4010;42.698;23.124;2024-03-22T07:02:50;118349.16;;;-140.64;40.50
7930;BME280;4010;42.698;23.124;2024-03-22T07:05:16;118349.16;;;-140.64;41.34
7930;BME280;4010;42.698;23.124;2024-03-22T07:07:43;118349.16;;;-140.64;39.26
7930;BME280;4010;42.698;23.124;2024-03-22T07:10:09;118349.16;;;-140.64;39.72
7930;BME280;4010;42.698;23.124;2024-03-22T07:12:36;118349.16;;;-140.64;39.75
7930;BME280;4010;42.698;23.124;2024-03-22T07:15:04;118349.16;;;-140.64;40.08
7930;BME280;4010;42.698;23.124;2024-03-22T07:17:31;118349.16;;;-140.64;40.41
7930;BME280;4010;42.698;23.124;2024-03-22T07:19:57;118349.16;;;-140.64;39.41
7930;BME280;4010;42.698;23.124;2024-03-22T07:22:23;118349.16;;;-140.64;40.36
7930;BME280;4010;42.698;23.124;2024-03-22T07:24:49;118349.16;;;-140.64;39.68
7930;BME280;4010;42.698;23.124;2024-03-22T07:27:16;118349.16;;;-140.64;40.33
7930;BME280;4010;42.698;23.124;2024-03-22T07:29:43;118349.16;;;-140.64;40.40
7930;BME280;4010;42.698;23.124;2024-03-22T07:32:11;118349.16;;;-140.64;40.41
7930;BME280;4010;42.698;23.124;2024-03-22T07:34:37;118349.16;;;-140.64;41.26
7930;BME280;4010;42.698;23.124;2024-03-22T07:37:04;118349.16;;;-140.64;40.63
7930;BME280;4010;42.698;23.124;2024-03-22T07:39:29;118349.16;;;-140.64;40.64
7930;BME280;4010;42.698;23.124;2024-03-22T07:41:56;118349.16;;;-140.64;41.31
7930;BME280;4010;42.698;23.124;2024-03-22T07:44:22;118349.16;;;-140.64;41.98
7930;BME280;4010;42.698;23.124;2024-03-22T07:46:49;118349.16;;;-140.64;40.60
7930;BME280;4010;42.698;23.124;2024-03-22T07:49:16;118349.16;;;-140.64;40.63
7930;BME280;4010;42.698;23.124;2024-03-22T07:51:43;118349.16;;;-140.64;41.18
7930;BME280;4010;42.698;23.124;2024-03-22T07:54:09;118349.16;;;-140.64;41.02
7930;BME280;4010;42.698;23.124;2024-03-22T07:56:36;118349.16;;;-140.64;40.20
7930;BME280;4010;42.698;23.124;2024-03-22T07:59:01;118349.16;;;-140.64;40.48
7930;BME280;4010;42.698;23.124;2024-03-22T08:01:28;118349.16;;;-140.64;40.21
7930;BME280;4010;42.698;23.124;2024-03-22T08:03:54;118349.16;;;-140.64;42.04
7930;BME280;4010;42.698;23.124;2024-03-22T08:06:22;118349.16;;;-140.64;41.01
7930;BME280;4010;42.698;23.124;2024-03-22T08:08:47;118349.16;;;-140.64;39.73
7930;BME280;4010;42.698;23.124;2024-03-22T08:11:14;118349.16;;;-140.64;39.66
7930;BME280;4010;42.698;23.124;2024-03-22T08:13:40;118349.16;;;-140.64;41.31
7930;BME280;4010;42.698;23.124;2024-03-22T08:16:07;118349.16;;;-140.64;39.55
7930;BME280;4010;42.698;23.124;2024-03-22T08:18:33;118349.16;;;-140.64;40.32
7930;BME280;4010;42.698;23.124;2024-03-22T08:20:59;118349.16;;;-140.64;40.55
7930;BME280;4010;42.698;23.124;2024-03-22T08:23:26;118349.16;;;-140.64;40.09
7930;BME280;4010;42.698;23.124;2024-03-22T08:25:53;118349.16;;;-140.64;39.55
7930;BME280;4010;42.698;23.124;2024-03-22T08:28:19;118349.16;;;-140.64;38.97
7930;BME280;4010;42.698;23.124;2024-03-22T08:30:45;118349.16;;;-140.64;38.48
7930;BME280;4010;42.698;23.124;2024-03-22T08:33:11;118349.16;;;-140.64;38.79
7930;BME280;4010;42.698;23.124;2024-03-22T08:35:38;118349.16;;;-140.64;38.13
7930;BME280;4010;42.698;23.124;2024-03-22T08:38:04;118349.16;;;-140.64;38.57
7930;BME280;4010;42.698;23.124;2024-03-22T08:40:36;118349.16;;;-140.64;39.56
7930;BME280;4010;42.698;23.124;2024-03-22T08:43:02;118349.16;;;-140.64;39.61
7930;BME280;4010;42.698;23.124;2024-03-22T08:45:30;118349.16;;;-140.64;38.78
7930;BME280;4010;42.698;23.124;2024-03-22T08:47:55;118349.16;;;-140.64;38.37
7930;BME280;4010;42.698;23.124;2024-03-22T08:50:22;118349.16;;;-140.64;38.42
7930;BME280;4010;42.698;23.124;2024-03-22T08:52:48;118349.16;;;-140.64;37.63
7930;BME280;4010;42.698;23.124;2024-03-22T08:55:14;118349.16;;;-140.64;37.67
7930;BME280;4010;42.698;23.124;2024-03-22T08:57:41;118349.16;;;-140.64;39.80
7930;BME280;4010;42.698;23.124;2024-03-22T09:00:09;118349.16;;;-140.64;37.64
7930;BME280;4010;42.698;23.124;2024-03-22T09:02:36;118349.16;;;-140.64;38.22
7930;BME280;4010;42.698;23.124;2024-03-22T09:05:03;118349.16;;;-140.64;36.22
7930;BME280;4010;42.698;23.124;2024-03-22T09:07:29;118349.16;;;-140.64;36.58
7930;BME280;4010;42.698;23.124;2024-03-22T09:09:56;118349.16;;;-140.64;36.64
7930;BME280;4010;42.698;23.124;2024-03-22T09:12:23;118349.16;;;-140.64;37.42
7930;BME280;4010;42.698;23.124;2024-03-22T09:14:50;118349.16;;;-140.64;36.33
7930;BME280;4010;42.698;23.124;2024-03-22T09:17:16;118349.16;;;-140.64;36.37
7930;BME280;4010;42.698;23.124;2024-03-22T09:19:42;118349.16;;;-140.64;36.37
7930;BME280;4010;42.698;23.124;2024-03-22T09:22:09;118349.16;;;-140.64;38.76
7930;BME280;4010;42.698;23.124;2024-03-22T09:24:35;118349.16;;;-140.64;36.57
7930;BME280;4010;42.698;23.124;2024-03-22T09:27:02;118349.16;;;-140.64;36.05
7930;BME280;4010;42.698;23.124;2024-03-22T09:29:34;118349.16;;;-140.64;34.67
7930;BME280;4010;42.698;23.124;2024-03-22T09:32:02;118349.16;;;-140.64;35.63
7930;BME280;4010;42.698;23.124;2024-03-22T09:34:27;118349.16;;;-140.64;36.08
7930;BME280;4010;42.698;23.124;2024-03-22T09:36:54;118349.16;;;-140.64;36.12
7930;BME280;4010;42.698;23.124;2024-03-22T09:39:20;118349.16;;;-140.64;35.45
7930;BME280;4010;42.698;23.124;2024-03-22T09:41:47;118349.16;;;-140.64;36.08
7930;BME280;4010;42.698;23.124;2024-03-22T09:44:14;118349.16;;;-140.64;37.71
7930;BME280;4010;42.698;23.124;2024-03-22T09:46:44;118349.16;;;-140.64;38.17
7930;BME280;4010;42.698;23.124;2024-03-22T09:49:13;118349.16;;;-140.64;38.26
7930;BME280;4010;42.698;23.124;2024-03-22T09:51:41;118349.16;;;-140.64;38.29
7930;BME280;4010;42.698;23.124;2024-03-22T09:54:08;118349.16;;;-140.64;36.90
7930;BME280;4010;42.698;23.124;2024-03-22T09:56:35;118349.16;;;-140.64;35.89
7930;BME280;4010;42.698;23.124;2024-03-22T09:59:03;118349.16;;;-140.64;34.58
7930;BME280;4010;42.698;23.124;2024-03-22T10:01:31;118349.16;;;-140.64;37.06
7930;BME280;4010;42.698;23.124;2024-03-22T10:03:57;118349.16;;;-140.64;34.87
7930;BME280;4010;42.698;23.124;2024-03-22T10:06:25;118349.16;;;-140.64;36.49
7930;BME280;4010;42.698;23.124;2024-03-22T10:08:51;118349.16;;;-140.64;38.97
7930;BME280;4010;42.698;23.124;2024-03-22T10:11:18;118349.16;;;-140.64;37.02
7930;BME280;4010;42.698;23.124;2024-03-22T10:13:44;118349.16;;;-140.64;34.57
7930;BME280;4010;42.698;23.124;2024-03-22T10:16:12;118349.16;;;-140.64;35.20
7930;BME280;4010;42.698;23.124;2024-03-22T10:18:38;118349.16;;;-140.64;34.70
7930;BME280;4010;42.698;23.124;2024-03-22T10:21:05;118349.16;;;-140.64;34.77
7930;BME280;4010;42.698;23.124;2024-03-22T10:23:32;118349.16;;;-140.64;34.78
7930;BME280;4010;42.698;23.124;2024-03-22T10:26:00;118349.16;;;-140.64;36.25
7930;BME280;4010;42.698;23.124;2024-03-22T10:28:25;118349.16;;;-140.64;35.36
7930;BME280;4010;42.698;23.124;2024-03-22T10:30:52;118349.16;;;-140.64;35.16
7930;BME280;4010;42.698;23.124;2024-03-22T10:33:19;118349.16;;;-140.64;35.46
7930;BME280;4010;42.698;23.124;2024-03-22T10:35:51;118349.16;;;-140.64;34.60
7930;BME280;4010;42.698;23.124;2024-03-22T10:38:18;118349.16;;;-140.64;34.70
7930;BME280;4010;42.698;23.124;2024-03-22T10:40:47;118349.16;;;-140.64;34.70
7930;BME280;4010;42.698;23.124;2024-03-22T10:43:13;118349.16;;;-140.64;34.49
7930;BME280;4010;42.698;23.124;2024-03-22T10:45:40;118349.16;;;-140.64;34.92
7930;BME280;4010;42.698;23.124;2024-03-22T10:48:09;118349.16;;;-140.64;34.66
7930;BME280;4010;42.698;23.124;2024-03-22T10:50:38;118349.16;;;-140.64;33.75
7930;BME280;4010;42.698;23.124;2024-03-22T10:53:07;118349.16;;;-140.64;33.48
7930;BME280;4010;42.698;23.124;2024-03-22T10:55:36;118349.16;;;-140.64;33.80
7930;BME280;4010;42.698;23.124;2024-03-22T10:58:04;118349.16;;;-140.64;33.89
7930;BME280;4010;42.698;23.124;2024-03-22T11:00:32;118349.16;;;-140.64;33.42
7930;BME280;4010;42.698;23.124;2024-03-22T11:02:59;118349.16;;;-140.64;33.88
7930;BME280;4010;42.698;23.124;2024-03-22T11:05:26;118349.16;;;-140.64;34.26
7930;BME280;4010;42.698;23.124;2024-03-22T11:07:59;118349.16;;;-140.64;34.50
7930;BME280;4010;42.698;23.124;2024-03-22T11:10:28;118349.16;;;-140.64;35.43
7930;BME280;4010;42.698;23.124;2024-03-22T11:12:55;118349.16;;;-140.64;33.14
7930;BME280;4010;42.698;23.124;2024-03-22T11:15:23;118349.16;;;-140.64;32.82
7930;BME280;4010;42.698;23.124;2024-03-22T11:17:49;118349.16;;;-140.64;33.34
7930;BME280;4010;42.698;23.124;2024-03-22T11:20:16;118349.16;;;-140.64;35.61
7930;BME280;4010;42.698;23.124;2024-03-22T11:22:42;118349.16;;;-140.64;36.26
7930;BME280;4010;42.698;23.124;2024-03-22T11:25:09;118349.16;;;-140.64;32.97
7930;BME280;4010;42.698;23.124;2024-03-22T11:27:34;118349.16;;;-140.64;31.55
7930;BME280;4010;42.698;23.124;2024-03-22T11:30:01;118349.16;;;-140.64;31.59
7930;BME280;4010;42.698;23.124;2024-03-22T11:32:30;118349.16;;;-140.64;31.54
7930;BME280;4010;42.698;23.124;2024-03-22T11:34:56;118349.16;;;-140.64;31.84
7930;BME280;4010;42.698;23.124;2024-03-22T11:37:22;118349.16;;;-140.64;32.11
7930;BME280;4010;42.698;23.124;2024-03-22T11:39:49;118349.16;;;-140.64;31.91
7930;BME280;4010;42.698;23.124;2024-03-22T11:42:15;118349.16;;;-140.64;31.59
7930;BME280;4010;42.698;23.124;2024-03-22T11:44:44;118349.16;;;-140.64;32.42
7930;BME280;4010;42.698;23.124;2024-03-22T11:47:09;118349.16;;;-140.64;31.84
7930;BME280;4010;42.698;23.124;2024-03-22T11:49:38;118349.16;;;-140.64;32.86
7930;BME280;4010;42.698;23.124;2024-03-22T11:52:04;118349.16;;;-140.64;31.33
7930;BME280;4010;42.698;23.124;2024-03-22T11:54:30;118349.16;;;-140.64;31.54
7930;BME280;4010;42.698;23.124;2024-03-22T11:56:56;118349.16;;;-140.64;31.72
7930;BME280;4010;42.698;23.124;2024-03-22T11:59:23;118349.16;;;-140.64;30.86
7930;BME280;4010;42.698;23.124;2024-03-22T12:01:48;118349.16;;;-140.64;30.90
7930;BME280;4010;42.698;23.124;2024-03-22T12:04:15;118349.16;;;-140.64;32.78
7930;BME280;4010;42.698;23.124;2024-03-22T12:06:43;118349.16;;;-140.64;31.44
7930;BME280;4010;42.698;23.124;2024-03-22T12:09:10;118349.16;;;-140.64;30.79
7930;BME280;4010;42.698;23.124;2024-03-22T12:11:38;118349.16;;;-140.64;31.32
7930;BME280;4010;42.698;23.124;2024-03-22T12:14:05;118349.16;;;-140.64;31.00
7930;BME280;4010;42.698;23.124;2024-03-22T12:16:30;118349.16;;;-140.64;33.16
7930;BME280;4010;42.698;23.124;2024-03-22T12:18:57;118349.16;;;-140.64;30.83
7930;BME280;4010;42.698;23.124;2024-03-22T12:21:23;118349.16;;;-140.64;31.96
7930;BME280;4010;42.698;23.124;2024-03-22T12:23:51;118349.16;;;-140.64;30.62
7930;BME280;4010;42.698;23.124;2024-03-22T12:26:16;118349.16;;;-140.64;31.74
7930;BME280;4010;42.698;23.124;2024-03-22T12:28:43;118349.16;;;-140.64;31.74
7930;BME280;4010;42.698;23.124;2024-03-22T12:31:09;118349.16;;;-140.64;33.38
7930;BME280;4010;42.698;23.124;2024-03-22T12:33:36;118349.16;;;-140.64;31.12
7930;BME280;4010;42.698;23.124;2024-03-22T12:36:02;118349.16;;;-140.64;31.76
7930;BME280;4010;42.698;23.124;2024-03-22T12:38:29;118349.16;;;-140.64;32.72